createdAt,value
2023-05-20T00:01:54.631Z,29.30
2023-05-20T00:04:21.532Z,29.60
2023-05-20T00:06:48.308Z,29.60
2023-05-20T00:09:15.839Z,29.60
2023-05-20T00:11:42.797Z,29.70
2023-05-20T00:14:09.576Z,29.80
2023-05-20T00:16:36.720Z,29.90
2023-05-20T00:19:03.768Z,29.90
2023-05-20T00:21:31.230Z,30.00
2023-05-20T00:23:58.487Z,30.00
2023-05-20T00:26:26.195Z,30.30
2023-05-20T00:28:52.956Z,30.30
2023-05-20T00:31:19.668Z,30.20
2023-05-20T00:33:46.382Z,30.50
2023-05-20T00:36:13.084Z,30.60
2023-05-20T00:38:39.881Z,30.90
2023-05-20T00:41:07.730Z,31.00
2023-05-20T00:43:34.487Z,31.40
2023-05-20T00:46:02.031Z,31.70
2023-05-20T00:48:39.588Z,31.60
2023-05-20T00:51:07.690Z,32.00
2023-05-20T00:53:36.509Z,32.00
2023-05-20T00:56:04.600Z,32.30
2023-05-20T00:58:32.185Z,32.90
2023-05-20T01:00:59.037Z,33.30
2023-05-20T01:03:26.305Z,33.80
2023-05-20T01:05:53.194Z,33.80
2023-05-20T01:08:20.148Z,34.30
2023-05-20T01:10:49.819Z,34.80
2023-05-20T01:13:21.956Z,35.20
2023-05-20T01:15:49.710Z,36.00
2023-05-20T01:18:18.327Z,36.10
2023-05-20T01:20:51.041Z,36.30
2023-05-20T01:23:17.794Z,36.60
2023-05-20T01:25:44.565Z,36.80
2023-05-20T01:28:17.685Z,36.90
2023-05-20T01:30:52.428Z,37.30
2023-05-20T01:33:23.573Z,37.70
2023-05-20T01:35:50.357Z,37.80
2023-05-20T01:38:19.290Z,38.60
2023-05-20T01:40:47.725Z,38.70
2023-05-20T01:43:17.520Z,38.90
2023-05-20T01:45:44.965Z,39.20
2023-05-20T01:48:12.210Z,40.00
2023-05-20T01:50:39.985Z,40.40
2023-05-20T01:53:09.531Z,40.60
2023-05-20T01:55:36.554Z,41.20
2023-05-20T01:58:03.581Z,41.30
2023-05-20T02:00:31.783Z,42.10
2023-05-20T02:02:58.552Z,42.30
2023-05-20T02:05:25.404Z,43.50
2023-05-20T02:07:52.164Z,43.00
2023-05-20T02:10:18.943Z,43.40
2023-05-20T02:12:47.880Z,43.70
2023-05-20T02:15:14.655Z,44.00
2023-05-20T02:17:43.667Z,44.30
2023-05-20T02:20:11.715Z,44.70
2023-05-20T02:22:38.593Z,44.90
2023-05-20T02:25:06.020Z,45.40
2023-05-20T02:27:32.959Z,45.90
2023-05-20T02:30:01.157Z,47.10
2023-05-20T02:32:28.953Z,47.50
2023-05-20T02:34:55.977Z,48.70
2023-05-20T02:37:22.819Z,49.40
2023-05-20T02:39:50.016Z,50.00
2023-05-20T02:42:16.802Z,52.10
2023-05-20T02:44:43.533Z,54.30
2023-05-20T02:47:10.674Z,56.80
2023-05-20T02:49:37.415Z,58.40
2023-05-20T02:52:04.451Z,62.30
2023-05-20T02:54:31.233Z,64.10
2023-05-20T02:56:57.958Z,66.10
2023-05-20T02:59:24.722Z,68.70
2023-05-20T03:01:51.569Z,72.50
2023-05-20T03:04:19.288Z,74.80
2023-05-20T03:06:46.764Z,77.40
2023-05-20T03:09:14.320Z,78.80
2023-05-20T03:11:41.107Z,80.40
2023-05-20T03:14:07.827Z,80.70
2023-05-20T03:16:35.478Z,81.10
2023-05-20T03:19:02.853Z,81.80
2023-05-20T03:21:29.662Z,81.90
2023-05-20T03:23:56.494Z,83.50
2023-05-20T03:26:23.347Z,83.30
2023-05-20T03:28:50.081Z,84.30
2023-05-20T03:31:17.692Z,85.00
2023-05-20T03:33:45.483Z,86.00
2023-05-20T03:36:12.657Z,86.60
2023-05-20T03:38:39.366Z,88.30
2023-05-20T03:41:06.321Z,89.10
2023-05-20T03:43:33.065Z,90.00
2023-05-20T03:45:59.790Z,90.40
2023-05-20T03:48:26.481Z,90.90
2023-05-20T03:50:53.184Z,92.10
2023-05-20T03:53:20.884Z,92.30
2023-05-20T03:55:47.638Z,92.90
2023-05-20T03:58:15.455Z,93.10
2023-05-20T04:00:42.457Z,93.80
2023-05-20T04:03:10.318Z,94.30
2023-05-20T04:05:37.433Z,94.10
2023-05-20T04:08:07.391Z,94.40
2023-05-20T04:10:34.287Z,94.30
2023-05-20T04:13:01.399Z,94.50
2023-05-20T04:15:29.713Z,94.90
2023-05-20T04:17:56.624Z,95.00
2023-05-20T04:20:24.429Z,95.10
2023-05-20T04:22:52.314Z,95.20
2023-05-20T04:25:19.183Z,95.10
2023-05-20T04:27:46.061Z,95.60
2023-05-20T04:30:13.047Z,95.40
2023-05-20T04:32:40.160Z,95.30
2023-05-20T04:35:12.167Z,95.40
2023-05-20T04:37:39.108Z,95.80
2023-05-20T04:40:09.289Z,95.90
2023-05-20T04:42:36.204Z,95.80
2023-05-20T04:45:05.679Z,95.60
2023-05-20T04:47:39.171Z,95.20
2023-05-20T04:50:10.721Z,95.50
2023-05-20T04:52:39.121Z,95.50
2023-05-20T04:55:09.759Z,96.30
2023-05-20T04:57:38.742Z,95.90
2023-05-20T05:00:07.939Z,96.30
2023-05-20T05:02:35.887Z,95.80
2023-05-20T05:05:02.759Z,95.80
2023-05-20T05:07:29.515Z,95.60
2023-05-20T05:09:56.384Z,95.70
2023-05-20T05:12:23.201Z,95.10
2023-05-20T05:14:49.962Z,95.30
2023-05-20T05:17:16.708Z,95.40
2023-05-20T05:19:43.440Z,95.40
2023-05-20T05:22:10.188Z,95.90
2023-05-20T05:24:36.953Z,94.30
2023-05-20T05:27:03.896Z,94.10
2023-05-20T05:29:30.637Z,93.00
2023-05-20T05:31:57.422Z,92.10
2023-05-20T05:34:24.174Z,91.90
2023-05-20T05:36:50.909Z,91.00
2023-05-20T05:39:17.691Z,91.30
2023-05-20T05:41:44.457Z,90.00
2023-05-20T05:44:11.145Z,89.10
2023-05-20T05:46:37.875Z,88.00
2023-05-20T05:49:04.608Z,87.70
2023-05-20T05:51:31.646Z,86.90
2023-05-20T05:53:58.427Z,85.50
2023-05-20T05:56:25.211Z,84.20
2023-05-20T05:58:51.960Z,83.40
2023-05-20T06:01:18.689Z,81.70
2023-05-20T06:03:45.553Z,81.70
2023-05-20T06:06:12.376Z,80.00
2023-05-20T06:08:39.242Z,77.50
2023-05-20T06:11:06.024Z,77.90
2023-05-20T06:13:32.728Z,78.20
2023-05-20T06:15:59.416Z,77.50
2023-05-20T06:18:26.276Z,76.00
2023-05-20T06:20:57.377Z,74.50
2023-05-20T06:23:24.298Z,73.00
2023-05-20T06:25:51.052Z,72.00
2023-05-20T06:28:18.247Z,71.30
2023-05-20T06:30:45.038Z,69.50
2023-05-20T06:33:11.874Z,67.90
2023-05-20T06:35:38.634Z,66.80
2023-05-20T06:38:06.064Z,66.50
2023-05-20T06:40:32.936Z,66.50
2023-05-20T06:42:59.706Z,65.40
2023-05-20T06:45:26.552Z,65.00
2023-05-20T06:47:54.360Z,64.70
2023-05-20T06:50:21.219Z,63.10
2023-05-20T06:52:47.941Z,61.50
2023-05-20T06:55:14.831Z,62.70
2023-05-20T06:57:41.596Z,61.70
2023-05-20T07:00:09.207Z,61.30
2023-05-20T07:02:36.039Z,59.10
2023-05-20T07:05:02.839Z,58.50
2023-05-20T07:07:29.558Z,58.40
2023-05-20T07:09:56.372Z,58.70
2023-05-20T07:12:23.210Z,57.30
2023-05-20T07:14:50.562Z,57.80
2023-05-20T07:17:17.307Z,56.30
2023-05-20T07:19:44.164Z,55.60
2023-05-20T07:22:11.485Z,56.00
2023-05-20T07:24:38.554Z,55.20
2023-05-20T07:27:05.546Z,54.60
2023-05-20T07:29:32.612Z,54.90
2023-05-20T07:32:00.328Z,53.90
2023-05-20T07:34:27.315Z,52.80
2023-05-20T07:36:54.094Z,51.70
2023-05-20T07:39:20.876Z,50.40
2023-05-20T07:41:47.579Z,50.90
2023-05-20T07:44:14.436Z,51.20
2023-05-20T07:46:41.912Z,50.40
2023-05-20T07:49:08.797Z,50.00
2023-05-20T07:51:35.572Z,50.00
2023-05-20T07:54:02.526Z,50.70
2023-05-20T07:56:29.844Z,51.00
2023-05-20T07:58:58.602Z,50.00
2023-05-20T08:01:26.534Z,49.20
2023-05-20T08:03:53.801Z,49.60
2023-05-20T08:06:21.214Z,48.20
2023-05-20T08:08:48.162Z,49.10
2023-05-20T08:11:14.941Z,47.10
2023-05-20T08:13:41.680Z,47.00
2023-05-20T08:16:08.578Z,46.00
2023-05-20T08:18:37.790Z,46.30
2023-05-20T08:21:07.912Z,46.10
2023-05-20T08:23:38.068Z,45.70
2023-05-20T08:26:07.683Z,45.20
2023-05-20T08:28:34.618Z,45.60
2023-05-20T08:31:02.448Z,44.70
2023-05-20T08:33:29.808Z,45.00
2023-05-20T08:35:56.733Z,44.20
2023-05-20T08:38:23.516Z,44.00
2023-05-20T08:41:00.821Z,44.50
2023-05-20T08:43:30.183Z,43.30
2023-05-20T08:45:56.968Z,42.70
2023-05-20T08:48:26.331Z,41.20
2023-05-20T08:50:54.673Z,41.20
2023-05-20T08:53:23.159Z,40.30
2023-05-20T08:56:00.932Z,40.40
2023-05-20T08:58:29.436Z,41.00
2023-05-20T09:00:56.447Z,41.20
2023-05-20T09:03:24.368Z,40.70
2023-05-20T09:05:51.884Z,40.70
2023-05-20T09:08:18.830Z,40.40
2023-05-20T09:10:45.606Z,39.80
2023-05-20T09:13:12.342Z,41.10
2023-05-20T09:15:39.420Z,39.70
2023-05-20T09:18:07.692Z,39.90
2023-05-20T09:20:37.496Z,38.00
2023-05-20T09:23:06.561Z,38.70
2023-05-20T09:25:33.853Z,37.80
2023-05-20T09:28:01.008Z,38.00
2023-05-20T09:30:27.947Z,37.90
2023-05-20T09:32:56.460Z,38.30
2023-05-20T09:35:24.652Z,37.00
2023-05-20T09:37:56.442Z,36.50
2023-05-20T09:40:26.214Z,36.80
2023-05-20T09:43:03.886Z,36.50
2023-05-20T09:45:31.276Z,36.60
2023-05-20T09:48:00.069Z,36.60
2023-05-20T09:50:28.828Z,36.10
2023-05-20T09:52:56.176Z,35.90
2023-05-20T09:55:25.082Z,35.50
2023-05-20T09:57:53.252Z,36.00
2023-05-20T10:00:21.729Z,36.00
2023-05-20T10:02:51.115Z,36.10
2023-05-20T10:05:30.153Z,35.70
2023-05-20T10:08:07.494Z,35.50
2023-05-20T10:10:56.738Z,35.90
2023-05-20T10:13:50.751Z,35.10
2023-05-20T10:16:45.659Z,35.40
2023-05-20T10:19:32.491Z,35.00
2023-05-20T10:22:10.644Z,34.70
2023-05-20T10:24:40.894Z,34.70
2023-05-20T10:27:14.275Z,35.40
2023-05-20T10:29:44.302Z,34.80
2023-05-20T10:32:11.296Z,34.80
2023-05-20T10:34:49.273Z,35.20
2023-05-20T10:37:29.220Z,35.20
2023-05-20T10:40:25.485Z,34.60
2023-05-20T10:42:52.269Z,34.90
2023-05-20T10:45:27.582Z,34.50
2023-05-20T10:47:58.620Z,34.50
2023-05-20T10:50:34.100Z,34.20
2023-05-20T10:53:06.242Z,33.90
2023-05-20T10:55:41.578Z,33.70
2023-05-20T10:58:09.922Z,33.30
2023-05-20T11:00:37.763Z,33.30
2023-05-20T11:03:08.329Z,33.20
2023-05-20T11:05:36.052Z,33.30
2023-05-20T11:08:20.669Z,33.20
2023-05-20T11:10:56.935Z,32.60
2023-05-20T11:13:23.853Z,31.70
2023-05-20T11:15:50.895Z,31.90
2023-05-20T11:18:18.826Z,31.50
2023-05-20T11:20:47.041Z,31.70
2023-05-20T11:23:15.621Z,31.30
2023-05-20T11:25:42.604Z,30.80
2023-05-20T11:28:21.376Z,31.10
2023-05-20T11:30:49.151Z,31.50
2023-05-20T11:33:17.286Z,31.90
2023-05-20T11:35:49.539Z,31.20
2023-05-20T11:38:16.987Z,31.70
2023-05-20T11:40:51.047Z,31.90
2023-05-20T11:43:19.153Z,30.90
2023-05-20T11:45:48.221Z,31.30
2023-05-20T11:48:17.955Z,32.90
2023-05-20T11:50:47.124Z,32.00
2023-05-20T11:53:18.957Z,31.90
2023-05-20T11:55:47.198Z,32.00
2023-05-20T11:58:19.835Z,31.70
2023-05-20T12:00:51.799Z,31.40
2023-05-20T12:03:24.333Z,31.50
2023-05-20T12:05:51.357Z,32.10
2023-05-20T12:08:18.161Z,32.70
2023-05-20T12:10:45.259Z,32.80
2023-05-20T12:13:13.654Z,33.10
2023-05-20T12:15:40.858Z,32.30
2023-05-20T12:18:07.807Z,32.20
2023-05-20T12:20:35.292Z,32.50
2023-05-20T12:23:02.646Z,32.80
2023-05-20T12:25:29.597Z,33.10
2023-05-20T12:27:56.577Z,33.40
2023-05-20T12:30:24.174Z,33.20
2023-05-20T12:32:52.083Z,33.10
2023-05-20T12:35:27.034Z,32.70
2023-05-20T12:37:54.058Z,32.90
2023-05-20T12:40:20.979Z,32.10
2023-05-20T12:42:47.773Z,31.70
2023-05-20T12:45:14.517Z,31.40
2023-05-20T12:47:41.314Z,31.40
2023-05-20T12:50:08.357Z,31.70
2023-05-20T12:52:35.099Z,31.90
2023-05-20T12:55:01.987Z,31.60
2023-05-20T12:57:28.809Z,31.70
2023-05-20T12:59:55.670Z,31.30
2023-05-20T13:02:22.454Z,31.90
2023-05-20T13:04:49.266Z,31.50
2023-05-20T13:07:16.345Z,31.70
2023-05-20T13:09:44.106Z,31.80
2023-05-20T13:12:11.003Z,31.80
2023-05-20T13:14:37.744Z,31.40
2023-05-20T13:17:04.657Z,31.10
2023-05-20T13:19:31.527Z,31.20
2023-05-20T13:21:58.291Z,31.80
2023-05-20T13:24:25.060Z,31.50
2023-05-20T13:26:54.896Z,31.40
2023-05-20T13:29:21.824Z,31.40
2023-05-20T13:31:48.579Z,31.20
2023-05-20T13:34:15.593Z,31.70
2023-05-20T13:36:42.404Z,31.00
2023-05-20T13:39:09.247Z,32.10
2023-05-20T13:41:36.024Z,31.80
2023-05-20T13:44:03.197Z,31.50
2023-05-20T13:46:29.913Z,31.70
2023-05-20T13:48:56.868Z,31.40
2023-05-20T13:51:23.796Z,31.10
2023-05-20T13:53:50.627Z,30.60
2023-05-20T13:56:17.564Z,30.90
2023-05-20T13:58:44.412Z,30.10
2023-05-20T14:01:12.635Z,29.30
2023-05-20T14:03:40.747Z,28.70
2023-05-20T14:06:07.889Z,28.70
2023-05-20T14:08:34.765Z,28.70
2023-05-20T14:11:01.736Z,28.60
2023-05-20T14:13:28.509Z,28.60
2023-05-20T14:15:55.672Z,28.90
2023-05-20T14:18:22.698Z,29.30
2023-05-20T14:20:49.622Z,29.30
2023-05-20T14:23:16.471Z,29.70
2023-05-20T14:25:43.354Z,30.10
2023-05-20T14:28:10.160Z,30.30
2023-05-20T14:30:37.353Z,30.90
2023-05-20T14:33:04.636Z,31.10
2023-05-20T14:35:31.516Z,30.60
2023-05-20T14:37:59.382Z,31.10
2023-05-20T14:40:26.248Z,30.50
2023-05-20T14:42:53.313Z,30.70
2023-05-20T14:45:20.511Z,31.00
2023-05-20T14:47:47.338Z,31.30
2023-05-20T14:50:14.147Z,31.70
2023-05-20T14:52:40.943Z,31.50
2023-05-20T14:55:08.317Z,31.70
2023-05-20T14:57:35.179Z,32.10
2023-05-20T15:00:01.993Z,32.60
2023-05-20T15:02:28.888Z,32.70
2023-05-20T15:04:55.801Z,32.90
2023-05-20T15:07:22.594Z,33.20
2023-05-20T15:09:50.032Z,33.60
2023-05-20T15:12:16.764Z,33.10
2023-05-20T15:14:43.498Z,33.00
2023-05-20T15:17:10.512Z,33.00
2023-05-20T15:19:39.734Z,33.30
2023-05-20T15:22:08.094Z,33.30
2023-05-20T15:24:34.910Z,33.30
2023-05-20T15:27:01.721Z,33.80
2023-05-20T15:29:28.464Z,33.40
2023-05-20T15:31:55.261Z,33.60
2023-05-20T15:34:21.972Z,33.40
2023-05-20T15:36:48.707Z,33.40
2023-05-20T15:39:15.513Z,33.90
2023-05-20T15:41:42.475Z,34.00
2023-05-20T15:44:09.567Z,33.30
2023-05-20T15:46:36.502Z,33.90
2023-05-20T15:49:03.315Z,32.90
2023-05-20T15:51:30.059Z,33.30
2023-05-20T15:53:56.787Z,33.20
2023-05-20T15:56:23.703Z,33.40
2023-05-20T15:58:50.499Z,33.30
2023-05-20T16:01:17.284Z,33.90
2023-05-20T16:03:44.244Z,34.30
2023-05-20T16:06:12.596Z,34.30
2023-05-20T16:08:40.754Z,34.30
2023-05-20T16:11:08.097Z,34.50
2023-05-20T16:13:34.890Z,34.80
2023-05-20T16:16:02.101Z,35.10
2023-05-20T16:18:29.702Z,35.10
2023-05-20T16:20:57.293Z,35.30
2023-05-20T16:23:24.724Z,36.50
2023-05-20T16:25:51.776Z,37.20
2023-05-20T16:28:18.573Z,37.80
2023-05-20T16:30:45.506Z,37.30
2023-05-20T16:33:13.322Z,37.60
2023-05-20T16:35:40.534Z,37.60
2023-05-20T16:38:07.367Z,37.90
2023-05-20T16:40:34.623Z,37.60
2023-05-20T16:43:01.586Z,38.10
2023-05-20T16:45:28.403Z,37.80
2023-05-20T16:47:56.528Z,38.30
2023-05-20T16:50:23.682Z,38.60
2023-05-20T16:52:50.468Z,38.10
2023-05-20T16:55:17.312Z,38.60
2023-05-20T16:57:44.329Z,38.40
2023-05-20T17:00:11.777Z,38.80
2023-05-20T17:02:39.234Z,38.80
2023-05-20T17:05:07.182Z,39.50
2023-05-20T17:07:34.197Z,39.70
2023-05-20T17:10:01.715Z,39.60
2023-05-20T17:12:29.244Z,40.00
2023-05-20T17:14:56.286Z,40.50
2023-05-20T17:17:23.185Z,40.50
2023-05-20T17:19:50.056Z,40.80
2023-05-20T17:22:16.884Z,41.20
2023-05-20T17:24:46.643Z,41.60
2023-05-20T17:27:13.905Z,41.90
2023-05-20T17:29:40.939Z,42.10
2023-05-20T17:32:07.888Z,43.00
2023-05-20T17:34:34.809Z,42.80
2023-05-20T17:37:01.630Z,43.10
2023-05-20T17:39:28.672Z,43.10
2023-05-20T17:41:55.490Z,43.20
2023-05-20T17:44:22.332Z,43.50
2023-05-20T17:46:49.134Z,44.00
2023-05-20T17:49:16.775Z,44.20
2023-05-20T17:51:43.592Z,44.50
2023-05-20T17:54:10.631Z,44.60
2023-05-20T17:56:37.453Z,45.10
2023-05-20T17:59:04.279Z,45.10
2023-05-20T18:01:31.090Z,45.00
2023-05-20T18:03:59.816Z,44.90
2023-05-20T18:06:26.704Z,45.60
2023-05-20T18:08:53.527Z,46.10
2023-05-20T18:11:21.769Z,46.60
2023-05-20T18:13:48.847Z,47.10
2023-05-20T18:16:18.524Z,47.40
2023-05-20T18:18:45.466Z,47.60
2023-05-20T18:21:12.413Z,48.40
2023-05-20T18:23:39.210Z,48.40
2023-05-20T18:26:09.058Z,48.50
2023-05-20T18:28:35.922Z,48.80
2023-05-20T18:31:02.898Z,49.60
2023-05-20T18:33:29.846Z,50.70
2023-05-20T18:35:56.874Z,50.60
2023-05-20T18:38:23.912Z,50.80
2023-05-20T18:40:50.736Z,51.80
2023-05-20T18:43:17.717Z,52.30
2023-05-20T18:45:44.675Z,52.70
2023-05-20T18:48:15.776Z,53.40
2023-05-20T18:50:47.182Z,54.60
2023-05-20T18:53:14.038Z,55.40
2023-05-20T18:55:41.161Z,56.30
2023-05-20T18:58:07.880Z,57.30
2023-05-20T19:00:34.791Z,58.70
2023-05-20T19:03:01.749Z,59.10
2023-05-20T19:05:28.648Z,60.40
2023-05-20T19:07:55.528Z,61.80
2023-05-20T19:10:22.394Z,63.50
2023-05-20T19:12:49.285Z,64.20
2023-05-20T19:15:16.777Z,66.30
2023-05-20T19:17:43.659Z,66.60
2023-05-20T19:20:10.831Z,67.70
2023-05-20T19:22:37.686Z,68.60
2023-05-20T19:25:05.594Z,70.60
2023-05-20T19:27:32.355Z,71.90
2023-05-20T19:29:59.217Z,73.30
2023-05-20T19:32:25.987Z,75.60
2023-05-20T19:34:52.824Z,75.60
2023-05-20T19:37:21.123Z,77.60
2023-05-20T19:39:49.880Z,78.50
2023-05-20T19:42:16.777Z,80.40
2023-05-20T19:44:46.498Z,81.90
2023-05-20T19:47:13.540Z,82.80
2023-05-20T19:49:40.510Z,83.90
2023-05-20T19:52:08.006Z,84.80
2023-05-20T19:54:34.769Z,85.80
2023-05-20T19:57:01.849Z,86.90
2023-05-20T19:59:28.665Z,88.40
2023-05-20T20:01:55.500Z,89.70
2023-05-20T20:04:22.363Z,90.30
2023-05-20T20:06:49.625Z,91.10
2023-05-20T20:09:17.416Z,91.40
2023-05-20T20:11:44.336Z,91.90
2023-05-20T20:14:12.751Z,92.20
2023-05-20T20:16:39.580Z,92.80
2023-05-20T20:19:06.341Z,93.40
2023-05-20T20:21:33.086Z,94.10
2023-05-20T20:24:00.170Z,94.80
2023-05-20T20:26:27.244Z,95.50
2023-05-20T20:28:54.109Z,96.20
2023-05-20T20:31:21.006Z,96.50
2023-05-20T20:33:47.860Z,97.10
2023-05-20T20:36:14.784Z,97.50
2023-05-20T20:38:46.662Z,97.70
2023-05-20T20:41:16.261Z,98.20
2023-05-20T20:43:46.263Z,98.70
2023-05-20T20:46:15.824Z,99.00
2023-05-20T20:48:46.544Z,99.40
2023-05-20T20:51:14.421Z,99.90
2023-05-20T20:53:42.073Z,99.90
2023-05-20T20:56:12.178Z,99.90
2023-05-20T20:58:39.646Z,99.90
2023-05-20T21:01:06.994Z,99.90
2023-05-20T21:03:40.613Z,99.90
2023-05-20T21:06:08.227Z,99.90
2023-05-20T21:08:35.542Z,99.90
2023-05-20T21:11:02.295Z,99.90
2023-05-20T21:13:30.433Z,99.90
2023-05-20T21:15:57.569Z,99.90
2023-05-20T21:18:24.581Z,99.90
2023-05-20T21:20:52.684Z,99.90
2023-05-20T21:23:21.020Z,99.90
2023-05-20T21:25:48.530Z,99.90
2023-05-20T21:28:16.042Z,99.90
2023-05-20T21:30:42.885Z,99.90
2023-05-20T21:33:09.825Z,99.90
2023-05-20T21:35:36.892Z,99.90
2023-05-20T21:38:03.856Z,99.90
2023-05-20T21:40:30.621Z,99.90
2023-05-20T21:42:57.327Z,99.90
2023-05-20T21:45:24.088Z,99.90
2023-05-20T21:47:50.965Z,99.90
2023-05-20T21:50:17.886Z,99.90
2023-05-20T21:52:44.590Z,99.90
2023-05-20T21:55:11.695Z,99.90
2023-05-20T21:57:38.533Z,99.90
2023-05-20T22:00:11.283Z,99.90
2023-05-20T22:02:38.131Z,99.90
2023-05-20T22:05:05.408Z,99.90
2023-05-20T22:07:33.143Z,99.90
2023-05-20T22:10:00.769Z,99.90
2023-05-20T22:12:27.777Z,99.90
2023-05-20T22:14:54.741Z,99.90
2023-05-20T22:17:21.857Z,99.90
2023-05-20T22:19:49.906Z,99.90
2023-05-20T22:22:16.683Z,99.90
2023-05-20T22:24:43.541Z,99.90
2023-05-20T22:27:10.369Z,99.90
2023-05-20T22:29:37.255Z,99.90
2023-05-20T22:32:04.378Z,99.90
2023-05-20T22:34:31.205Z,99.90
2023-05-20T22:36:58.172Z,99.90
2023-05-20T22:39:25.011Z,99.90
2023-05-20T22:41:51.773Z,99.90
2023-05-20T22:44:18.504Z,99.90
2023-05-20T22:46:45.349Z,99.90
2023-05-20T22:49:12.833Z,99.90
2023-05-20T22:51:39.725Z,99.90
2023-05-20T22:54:07.083Z,99.90
2023-05-20T22:56:34.249Z,99.90
2023-05-20T22:59:01.289Z,99.90
2023-05-20T23:01:28.298Z,99.90
2023-05-20T23:03:55.191Z,99.90
2023-05-20T23:06:22.761Z,99.90
2023-05-20T23:08:49.682Z,99.90
2023-05-20T23:11:16.597Z,99.90
2023-05-20T23:13:43.354Z,99.90
2023-05-20T23:16:10.290Z,99.90
2023-05-20T23:18:37.092Z,99.90
2023-05-20T23:21:04.299Z,99.90
2023-05-20T23:23:32.390Z,99.90
2023-05-20T23:25:59.849Z,99.90
2023-05-20T23:28:26.845Z,99.90
2023-05-20T23:30:54.604Z,99.90
2023-05-20T23:33:25.053Z,99.90
2023-05-20T23:35:52.716Z,99.90
2023-05-20T23:38:19.945Z,99.90
2023-05-20T23:40:47.159Z,99.90
2023-05-20T23:43:14.117Z,99.90
2023-05-20T23:45:40.838Z,99.90
2023-05-20T23:48:11.176Z,99.90
2023-05-20T23:50:38.151Z,99.90
2023-05-20T23:53:05.544Z,99.90
2023-05-20T23:55:32.310Z,99.90
2023-05-20T23:57:59.050Z,99.90
